createdAt,value
2018-09-25T00:00:05.720Z,28.60
2018-09-25T00:02:39.972Z,28.60
2018-09-25T00:05:14.331Z,28.60
2018-09-25T00:07:48.609Z,28.60
2018-09-25T00:10:23.120Z,28.60
2018-09-25T00:12:57.533Z,28.50
2018-09-25T00:15:31.753Z,28.50
2018-09-25T00:18:06.044Z,28.60
2018-09-25T00:20:40.336Z,28.50
2018-09-25T00:23:14.684Z,28.50
2018-09-25T00:25:49.136Z,28.50
2018-09-25T00:28:23.612Z,28.60
2018-09-25T00:30:58.053Z,28.50
2018-09-25T00:33:32.357Z,28.50
2018-09-25T00:36:06.792Z,28.50
2018-09-25T00:38:41.108Z,28.50
2018-09-25T00:41:15.514Z,28.50
2018-09-25T00:43:49.901Z,28.50
2018-09-25T00:46:24.348Z,28.50
2018-09-25T00:48:58.806Z,28.50
2018-09-25T00:51:33.170Z,28.50
2018-09-25T00:54:07.599Z,28.40
2018-09-25T00:56:42.017Z,28.50
2018-09-25T00:59:16.468Z,28.40
2018-09-25T01:01:50.795Z,28.40
2018-09-25T01:04:25.216Z,28.40
2018-09-25T01:06:59.736Z,28.40
2018-09-25T01:09:34.105Z,28.40
2018-09-25T01:12:08.633Z,28.40
2018-09-25T01:14:43.192Z,28.40
2018-09-25T01:17:17.400Z,28.40
2018-09-25T01:19:51.825Z,28.40
2018-09-25T01:22:26.123Z,28.40
2018-09-25T01:25:00.452Z,28.40
2018-09-25T01:27:34.922Z,28.40
2018-09-25T01:30:09.528Z,28.40
2018-09-25T01:32:43.852Z,28.30
2018-09-25T01:35:18.327Z,28.30
2018-09-25T01:37:52.842Z,28.30
2018-09-25T01:40:27.160Z,28.30
2018-09-25T01:43:01.657Z,28.30
2018-09-25T01:45:36.140Z,28.30
2018-09-25T01:48:10.584Z,28.30
2018-09-25T01:50:44.984Z,28.30
2018-09-25T01:53:19.376Z,28.30
2018-09-25T01:55:53.661Z,28.30
2018-09-25T01:58:28.124Z,28.30
2018-09-25T02:01:02.549Z,28.30
2018-09-25T02:03:36.982Z,28.20
2018-09-25T02:06:11.446Z,28.20
2018-09-25T02:08:45.896Z,28.20
2018-09-25T02:11:20.375Z,28.20
2018-09-25T02:13:54.806Z,28.20
2018-09-25T02:16:29.276Z,28.10
2018-09-25T02:19:03.553Z,28.10
2018-09-25T02:21:37.878Z,28.10
2018-09-25T02:24:12.249Z,28.20
2018-09-25T02:26:46.849Z,28.10
2018-09-25T02:29:21.362Z,28.20
2018-09-25T02:31:55.631Z,28.20
2018-09-25T02:34:30.025Z,28.20
2018-09-25T02:37:04.293Z,28.20
2018-09-25T02:39:38.652Z,28.20
2018-09-25T02:42:13.177Z,28.10
2018-09-25T02:44:47.384Z,28.20
2018-09-25T02:47:21.825Z,28.20
2018-09-25T02:49:56.187Z,28.10
2018-09-25T02:52:30.656Z,28.20
2018-09-25T02:55:04.988Z,28.10
2018-09-25T02:57:39.441Z,28.10
2018-09-25T03:00:13.726Z,28.10
2018-09-25T03:02:47.996Z,28.10
2018-09-25T03:05:22.428Z,28.00
2018-09-25T03:07:56.805Z,28.00
2018-09-25T03:10:31.199Z,28.00
2018-09-25T03:13:05.484Z,28.00
2018-09-25T03:15:39.828Z,28.00
2018-09-25T03:18:14.214Z,28.00
2018-09-25T03:20:48.567Z,28.00
2018-09-25T03:23:22.857Z,28.00
2018-09-25T03:25:57.220Z,28.00
2018-09-25T03:28:31.631Z,28.00
2018-09-25T03:31:05.921Z,27.90
2018-09-25T03:33:40.333Z,28.00
2018-09-25T03:36:14.843Z,27.90
2018-09-25T03:38:49.380Z,27.90
2018-09-25T03:41:23.675Z,27.90
2018-09-25T03:43:57.960Z,27.90
2018-09-25T03:46:32.333Z,27.80
2018-09-25T03:49:06.869Z,27.80
2018-09-25T03:51:41.104Z,27.80
2018-09-25T03:54:15.589Z,27.80
2018-09-25T03:56:49.998Z,27.80
2018-09-25T03:59:24.540Z,27.80
2018-09-25T04:01:58.936Z,27.80
2018-09-25T04:04:33.390Z,27.80
2018-09-25T04:07:07.720Z,27.80
2018-09-25T04:09:42.240Z,27.80
2018-09-25T04:12:16.583Z,27.70
2018-09-25T04:14:50.854Z,27.70
2018-09-25T04:17:25.188Z,27.70
2018-09-25T04:19:59.728Z,27.70
2018-09-25T04:22:34.048Z,27.70
2018-09-25T04:25:08.536Z,27.70
2018-09-25T04:27:42.933Z,27.70
2018-09-25T04:30:17.347Z,27.70
2018-09-25T04:32:51.744Z,27.70
2018-09-25T04:35:26.208Z,27.60
2018-09-25T04:38:00.616Z,27.60
2018-09-25T04:40:35.127Z,27.60
2018-09-25T04:43:09.504Z,27.60
2018-09-25T04:45:43.952Z,27.60
2018-09-25T04:48:18.307Z,27.60
2018-09-25T04:50:52.747Z,27.70
2018-09-25T04:53:27.132Z,27.70
2018-09-25T04:56:01.444Z,27.70
2018-09-25T04:58:35.826Z,27.70
2018-09-25T05:01:10.328Z,27.70
2018-09-25T05:03:44.619Z,27.70
2018-09-25T05:06:18.931Z,27.60
2018-09-25T05:08:53.208Z,27.60
2018-09-25T05:11:27.680Z,27.60
2018-09-25T05:14:02.217Z,27.70
2018-09-25T05:16:36.704Z,27.60
2018-09-25T05:19:11.287Z,27.60
2018-09-25T05:21:45.870Z,27.60
2018-09-25T05:24:20.395Z,27.60
2018-09-25T05:26:54.850Z,27.60
2018-09-25T05:29:29.247Z,27.60
2018-09-25T05:32:03.807Z,27.60
2018-09-25T05:34:38.216Z,27.60
2018-09-25T05:37:12.711Z,27.60
2018-09-25T05:39:47.115Z,27.60
2018-09-25T05:42:21.552Z,27.60
2018-09-25T05:44:55.870Z,27.60
2018-09-25T05:47:30.262Z,27.60
2018-09-25T05:50:04.616Z,27.60
2018-09-25T05:52:39.124Z,27.60
2018-09-25T05:55:13.618Z,27.60
2018-09-25T05:57:48.040Z,27.60
2018-09-25T06:00:22.360Z,27.60
2018-09-25T06:02:56.634Z,27.60
2018-09-25T06:05:31.082Z,27.60
2018-09-25T06:08:05.441Z,27.60
2018-09-25T06:10:39.952Z,27.60
2018-09-25T06:13:14.420Z,27.60
2018-09-25T06:15:48.827Z,27.60
2018-09-25T06:18:23.232Z,27.60
2018-09-25T06:20:57.695Z,27.60
2018-09-25T06:23:32.085Z,27.60
2018-09-25T06:26:06.508Z,27.60
2018-09-25T06:28:40.968Z,27.60
2018-09-25T06:31:15.544Z,27.60
2018-09-25T06:33:49.957Z,27.60
2018-09-25T06:36:24.483Z,27.60
2018-09-25T06:38:58.750Z,27.60
2018-09-25T06:41:33.080Z,27.60
2018-09-25T06:44:07.424Z,27.60
2018-09-25T06:46:41.716Z,27.60
2018-09-25T06:49:16.004Z,27.60
2018-09-25T06:51:50.265Z,27.60
2018-09-25T06:54:24.700Z,27.60
2018-09-25T06:56:58.980Z,27.60
2018-09-25T06:59:33.455Z,27.60
2018-09-25T07:02:07.723Z,27.70
2018-09-25T07:04:42.096Z,27.70
2018-09-25T07:07:16.414Z,27.70
2018-09-25T07:09:50.976Z,27.70
2018-09-25T07:12:25.340Z,27.70
2018-09-25T07:14:59.810Z,27.80
2018-09-25T07:17:34.129Z,27.80
2018-09-25T07:20:08.532Z,27.80
2018-09-25T07:22:42.798Z,27.80
2018-09-25T07:25:17.256Z,27.80
2018-09-25T07:27:51.591Z,27.90
2018-09-25T07:30:25.860Z,27.80
2018-09-25T07:33:00.481Z,27.90
2018-09-25T07:35:34.937Z,27.90
2018-09-25T07:38:09.185Z,27.90
2018-09-25T07:40:43.604Z,27.90
2018-09-25T07:43:18.027Z,28.00
2018-09-25T07:45:52.717Z,28.00
2018-09-25T07:48:27.181Z,28.00
2018-09-25T07:51:01.516Z,28.00
2018-09-25T07:53:35.993Z,28.10
2018-09-25T07:56:10.454Z,28.20
2018-09-25T07:58:44.826Z,28.20
2018-09-25T08:01:19.176Z,28.30
2018-09-25T08:03:53.388Z,28.30
2018-09-25T08:06:27.828Z,28.40
2018-09-25T08:09:02.332Z,28.40
2018-09-25T08:11:36.554Z,28.50
2018-09-25T08:14:10.928Z,28.50
2018-09-25T08:16:45.258Z,28.60
2018-09-25T08:19:19.537Z,28.70
2018-09-25T08:21:54.075Z,28.70
2018-09-25T08:24:28.441Z,28.80
2018-09-25T08:27:02.880Z,28.80
2018-09-25T08:29:37.488Z,28.90
2018-09-25T08:32:11.792Z,28.90
2018-09-25T08:34:46.173Z,29.00
2018-09-25T08:37:20.814Z,29.00
2018-09-25T08:39:55.316Z,29.10
2018-09-25T08:42:30.061Z,29.20
2018-09-25T08:45:04.465Z,29.30
2018-09-25T08:47:38.813Z,29.40
2018-09-25T08:50:13.278Z,29.40
2018-09-25T08:52:47.512Z,29.40
2018-09-25T08:55:21.996Z,29.50
2018-09-25T08:57:56.398Z,29.60
2018-09-25T09:00:30.809Z,29.70
2018-09-25T09:03:05.355Z,29.80
2018-09-25T09:05:39.700Z,29.90
2018-09-25T09:08:14.084Z,30.00
2018-09-25T09:10:48.472Z,30.00
2018-09-25T09:13:22.791Z,30.10
2018-09-25T09:15:57.276Z,30.20
2018-09-25T09:18:31.747Z,30.20
2018-09-25T09:21:06.153Z,30.30
2018-09-25T09:23:40.796Z,30.30
2018-09-25T09:26:15.278Z,30.50
2018-09-25T09:28:49.786Z,30.60
2018-09-25T09:31:24.251Z,30.60
2018-09-25T09:33:58.638Z,30.70
2018-09-25T09:36:33.180Z,30.80
2018-09-25T09:39:07.477Z,30.80
2018-09-25T09:41:44.815Z,30.90
2018-09-25T09:44:19.255Z,31.00
2018-09-25T09:46:53.621Z,31.00
2018-09-25T09:49:28.057Z,31.00
2018-09-25T09:52:02.580Z,31.10
2018-09-25T09:54:37.132Z,31.10
2018-09-25T09:57:11.585Z,31.20
2018-09-25T09:59:46.254Z,31.20
2018-09-25T10:02:20.548Z,31.30
2018-09-25T10:04:55.029Z,31.30
2018-09-25T10:07:29.447Z,31.30
2018-09-25T10:10:03.848Z,31.40
2018-09-25T10:12:38.380Z,31.40
2018-09-25T10:15:12.953Z,31.50
2018-09-25T10:17:47.469Z,31.60
2018-09-25T10:20:21.828Z,31.60
2018-09-25T10:22:56.139Z,31.70
2018-09-25T10:25:30.612Z,31.80
2018-09-25T10:28:05.174Z,31.80
2018-09-25T10:30:39.654Z,31.80
2018-09-25T10:33:14.079Z,31.90
2018-09-25T10:35:48.725Z,31.90
2018-09-25T10:38:23.194Z,32.00
2018-09-25T10:40:57.697Z,32.00
2018-09-25T10:43:32.181Z,32.00
2018-09-25T10:46:06.643Z,32.10
2018-09-25T10:48:40.967Z,32.10
2018-09-25T10:51:15.456Z,32.10
2018-09-25T10:53:50.041Z,32.10
2018-09-25T10:56:24.548Z,32.20
2018-09-25T10:58:59.036Z,32.20
2018-09-25T11:01:33.663Z,32.20
2018-09-25T11:04:08.064Z,32.20
2018-09-25T11:06:42.548Z,32.30
2018-09-25T11:09:17.331Z,32.30
2018-09-25T11:11:51.787Z,32.30
2018-09-25T11:14:26.245Z,32.40
2018-09-25T11:17:00.897Z,32.40
2018-09-25T11:19:35.912Z,32.40
2018-09-25T11:22:10.232Z,32.40
2018-09-25T11:24:44.701Z,32.30
2018-09-25T11:27:19.009Z,32.30
2018-09-25T11:29:53.447Z,32.30
2018-09-25T11:32:27.786Z,32.30
2018-09-25T11:35:02.288Z,32.30
2018-09-25T11:37:36.656Z,32.40
2018-09-25T11:40:11.140Z,32.30
2018-09-25T11:42:45.451Z,32.30
2018-09-25T11:45:20.071Z,32.40
2018-09-25T11:47:54.370Z,32.40
2018-09-25T11:50:28.737Z,32.30
2018-09-25T11:53:03.128Z,32.20
2018-09-25T11:55:38.073Z,32.20
2018-09-25T11:58:12.507Z,32.20
2018-09-25T12:00:46.918Z,32.20
2018-09-25T12:03:21.500Z,32.20
2018-09-25T12:05:56.001Z,32.20
2018-09-25T12:08:30.502Z,32.20
2018-09-25T12:11:04.952Z,32.10
2018-09-25T12:13:39.533Z,32.10
2018-09-25T12:16:14.044Z,32.10
2018-09-25T12:18:48.423Z,32.10
2018-09-25T12:21:22.994Z,32.10
2018-09-25T12:23:57.674Z,32.10
2018-09-25T12:26:32.615Z,32.10
2018-09-25T12:29:07.147Z,32.10
2018-09-25T12:31:41.453Z,32.10
2018-09-25T12:34:15.855Z,32.00
2018-09-25T12:36:50.533Z,32.00
2018-09-25T13:34:24.263Z,31.90
2018-09-25T13:36:58.655Z,31.90
2018-09-25T13:39:32.917Z,31.90
2018-09-25T13:42:07.350Z,31.80
2018-09-25T13:44:43.109Z,31.80
2018-09-25T13:47:17.624Z,31.80
2018-09-25T13:49:52.307Z,31.80
2018-09-25T13:52:26.812Z,31.80
2018-09-25T13:55:01.084Z,31.80
2018-09-25T13:57:35.488Z,31.70
2018-09-25T14:00:09.881Z,31.70
2018-09-25T14:02:44.312Z,31.70
2018-09-25T14:05:18.900Z,31.70
2018-09-25T14:07:53.271Z,31.70
2018-09-25T14:10:27.780Z,31.60
2018-09-25T14:13:02.163Z,31.70
2018-09-25T14:15:36.516Z,31.60
2018-09-25T14:18:10.860Z,31.60
2018-09-25T14:20:45.234Z,31.60
2018-09-25T14:23:20.369Z,31.60
2018-09-25T14:25:54.974Z,31.60
2018-09-25T14:28:29.454Z,31.60
2018-09-25T14:31:06.626Z,31.60
2018-09-25T14:33:41.213Z,31.60
2018-09-25T14:36:15.615Z,31.60
2018-09-25T14:38:50.573Z,31.60
2018-09-25T14:41:24.947Z,31.60
2018-09-25T14:43:59.444Z,31.50
2018-09-25T14:46:33.992Z,31.50
2018-09-25T14:49:08.368Z,31.50
2018-09-25T14:51:42.832Z,31.50
2018-09-25T14:54:17.240Z,31.50
2018-09-25T14:56:51.615Z,31.50
2018-09-25T14:59:25.983Z,31.40
2018-09-25T18:35:53.823Z,30.00
2018-09-25T18:38:28.097Z,29.90
2018-09-25T18:41:02.532Z,29.90
2018-09-25T18:43:36.760Z,30.00
2018-09-25T18:46:11.223Z,30.00
2018-09-25T18:48:45.452Z,29.90
2018-09-25T18:51:19.896Z,29.90
2018-09-25T18:53:54.408Z,30.00
2018-09-25T18:56:28.772Z,30.00
2018-09-25T18:59:03.123Z,30.00
2018-09-25T19:01:37.365Z,30.00
2018-09-25T19:04:11.711Z,29.90
2018-09-25T19:06:46.364Z,29.90
2018-09-25T19:09:20.644Z,29.90
2018-09-25T19:11:55.008Z,30.00
2018-09-25T19:14:29.274Z,29.90
2018-09-25T19:17:03.736Z,29.90
2018-09-25T19:19:38.192Z,29.90
2018-09-25T19:22:12.609Z,29.90
2018-09-25T19:24:47.064Z,29.90
2018-09-25T19:27:21.481Z,29.90
2018-09-25T19:29:56.130Z,29.90
2018-09-25T19:32:30.577Z,29.90
2018-09-25T19:35:04.840Z,29.90
2018-09-25T19:37:39.263Z,29.90
2018-09-25T19:40:13.758Z,29.90
2018-09-25T19:42:47.968Z,29.90
2018-09-25T19:45:22.261Z,29.90
2018-09-25T19:47:56.706Z,29.80
2018-09-25T19:50:30.932Z,29.80
2018-09-25T19:53:05.381Z,29.80
2018-09-25T19:55:39.644Z,29.90
2018-09-25T19:58:14.004Z,29.90
2018-09-25T20:00:48.413Z,29.90
2018-09-25T20:03:22.816Z,29.90
2018-09-25T20:05:58.086Z,29.90
2018-09-25T20:08:32.764Z,29.90
2018-09-25T20:11:07.181Z,29.80
2018-09-25T20:13:41.650Z,29.90
2018-09-25T21:51:13.479Z,28.40
2018-09-25T21:53:47.772Z,29.00
2018-09-25T21:56:22.174Z,29.10
2018-09-25T21:58:56.505Z,29.10
2018-09-25T22:01:30.972Z,29.20
2018-09-25T22:04:05.272Z,29.20
2018-09-25T22:06:39.747Z,29.30
2018-09-25T22:09:14.173Z,29.40
2018-09-25T22:11:48.677Z,29.40
2018-09-25T22:14:22.962Z,29.40
2018-09-25T22:16:57.296Z,29.50
2018-09-25T22:19:31.744Z,29.50
2018-09-25T22:22:06.177Z,29.50
2018-09-25T22:24:40.635Z,29.50
2018-09-25T22:27:15.081Z,29.50
2018-09-25T22:29:49.513Z,29.50
2018-09-25T22:32:23.737Z,29.50
2018-09-25T22:34:58.097Z,29.50
2018-09-25T22:37:32.516Z,29.50
2018-09-25T22:40:06.808Z,29.50
2018-09-25T22:42:41.246Z,29.50
2018-09-25T22:45:15.516Z,29.50
2018-09-25T22:47:49.988Z,29.50
2018-09-25T22:50:24.364Z,29.50
2018-09-25T22:52:58.733Z,29.50
2018-09-25T22:55:33.067Z,29.50
2018-09-25T22:58:07.268Z,29.40
2018-09-25T23:00:41.561Z,29.40
2018-09-25T23:03:15.964Z,29.50
2018-09-25T23:05:50.524Z,29.40
2018-09-25T23:08:24.941Z,29.40
2018-09-25T23:10:59.358Z,29.40
2018-09-25T23:13:33.604Z,29.40
2018-09-25T23:16:08.036Z,29.40
2018-09-25T23:18:42.537Z,29.40
2018-09-25T23:21:17.072Z,29.40
2018-09-25T23:23:51.496Z,29.40
2018-09-25T23:26:25.754Z,29.40
2018-09-25T23:28:59.976Z,29.40
2018-09-25T23:31:34.467Z,29.40
2018-09-25T23:34:08.788Z,29.40
2018-09-25T23:36:43.041Z,29.40
2018-09-25T23:40:15.108Z,29.30
2018-09-25T23:43:03.495Z,29.30
2018-09-25T23:45:36.924Z,29.20
2018-09-25T23:48:17.685Z,29.20
2018-09-25T23:50:52.143Z,29.20
2018-09-25T23:53:26.705Z,29.10
2018-09-25T23:56:02.927Z,29.10
2018-09-25T23:58:38.201Z,29.10
